createdAt,value
2019-01-15T00:02:26.916Z,99.00
2019-01-15T00:05:11.444Z,99.10
2019-01-15T00:07:56.551Z,99.10
2019-01-15T00:10:41.336Z,99.10
2019-01-15T00:13:26.466Z,99.10
2019-01-15T00:16:11.442Z,99.30
2019-01-15T00:18:56.541Z,99.10
2019-01-15T00:21:41.008Z,99.10
2019-01-15T00:24:26.146Z,99.10
2019-01-15T00:27:11.279Z,99.20
2019-01-15T00:29:55.760Z,99.20
2019-01-15T00:32:41.069Z,99.20
2019-01-15T00:35:25.495Z,99.50
2019-01-15T00:38:10.141Z,99.40
2019-01-15T00:40:55.302Z,99.50
2019-01-15T00:43:39.749Z,99.60
2019-01-15T00:46:24.860Z,99.70
2019-01-15T00:49:09.792Z,99.70
2019-01-15T00:51:54.220Z,99.70
2019-01-15T00:54:38.974Z,99.90
2019-01-15T00:57:24.130Z,99.90
2019-01-15T01:00:16.074Z,99.90
2019-01-15T01:03:00.944Z,99.90
2019-01-15T01:05:46.025Z,99.90
2019-01-15T01:08:31.065Z,99.90
2019-01-15T01:11:15.846Z,99.90
2019-01-15T01:14:00.334Z,99.90
2019-01-15T01:16:44.978Z,99.90
2019-01-15T01:19:29.435Z,99.90
2019-01-15T01:22:13.825Z,99.90
2019-01-15T01:24:58.501Z,99.90
2019-01-15T01:27:43.506Z,99.90
2019-01-15T01:30:28.731Z,99.90
2019-01-15T01:33:13.494Z,99.90
2019-01-15T01:35:58.292Z,99.90
2019-01-15T01:38:43.119Z,99.90
2019-01-15T01:41:27.988Z,99.90
2019-01-15T01:44:12.736Z,99.90
2019-01-15T01:46:57.423Z,99.90
2019-01-15T01:49:42.056Z,99.90
2019-01-15T01:52:26.836Z,99.90
2019-01-15T01:55:12.839Z,99.90
2019-01-15T01:57:57.675Z,99.90
2019-01-15T02:00:42.463Z,99.90
2019-01-15T02:03:26.916Z,99.90
2019-01-15T02:06:11.690Z,99.90
2019-01-15T02:08:56.115Z,99.90
2019-01-15T02:11:40.690Z,99.90
2019-01-15T02:14:25.584Z,99.90
2019-01-15T02:17:10.444Z,99.90
2019-01-15T02:19:55.315Z,99.90
2019-01-15T02:22:39.911Z,99.90
2019-01-15T02:25:25.250Z,99.90
2019-01-15T02:28:10.090Z,99.90
2019-01-15T02:30:54.711Z,99.90
2019-01-15T02:33:39.243Z,99.90
2019-01-15T02:36:23.848Z,99.90
2019-01-15T02:39:09.026Z,99.90
2019-01-15T02:41:54.180Z,99.90
2019-01-15T02:44:39.148Z,99.90
2019-01-15T02:47:24.257Z,99.90
2019-01-15T02:50:13.859Z,99.90
2019-01-15T02:52:58.348Z,99.90
2019-01-15T02:55:42.883Z,99.90
2019-01-15T02:58:27.574Z,99.90
2019-01-15T03:01:12.389Z,99.90
2019-01-15T03:03:56.983Z,99.90
2019-01-15T03:06:41.493Z,99.90
2019-01-15T03:09:26.068Z,99.90
2019-01-15T03:12:10.658Z,99.90
2019-01-15T03:14:55.537Z,99.90
2019-01-15T03:17:40.475Z,99.90
2019-01-15T03:20:25.154Z,99.90
2019-01-15T03:23:09.870Z,99.90
2019-01-15T03:25:54.836Z,99.90
2019-01-15T03:28:39.292Z,99.90
2019-01-15T03:31:23.925Z,99.90
2019-01-15T03:34:08.675Z,99.90
2019-01-15T03:36:53.617Z,99.90
2019-01-15T03:39:38.232Z,99.90
2019-01-15T03:42:22.830Z,99.90
2019-01-15T03:45:07.933Z,99.90
2019-01-15T03:47:52.732Z,99.90
2019-01-15T03:50:37.626Z,99.90
2019-01-15T03:53:22.181Z,99.90
2019-01-15T03:56:06.977Z,99.90
2019-01-15T03:58:52.081Z,99.90
2019-01-15T04:01:36.920Z,99.90
2019-01-15T04:04:21.653Z,99.90
2019-01-15T04:07:06.428Z,99.90
2019-01-15T04:09:51.280Z,99.90
2019-01-15T04:12:35.780Z,99.90
2019-01-15T04:15:20.565Z,99.90
2019-01-15T04:18:05.476Z,99.90
2019-01-15T04:20:49.968Z,99.90
2019-01-15T04:23:34.595Z,99.90
2019-01-15T04:26:19.054Z,99.90
2019-01-15T04:29:03.615Z,99.90
2019-01-15T04:31:48.127Z,99.90
2019-01-15T04:34:32.753Z,99.90
2019-01-15T04:37:17.738Z,99.90
2019-01-15T04:40:05.552Z,99.90
2019-01-15T04:42:50.396Z,99.90
2019-01-15T04:45:35.956Z,99.90
2019-01-15T04:48:21.782Z,99.90
2019-01-15T04:51:06.371Z,99.90
2019-01-15T04:53:50.978Z,99.90
2019-01-15T04:56:36.288Z,99.90
2019-01-15T04:59:21.480Z,99.90
2019-01-15T05:02:06.163Z,99.90
2019-01-15T05:04:51.257Z,99.90
2019-01-15T05:07:35.850Z,99.90
2019-01-15T05:10:20.888Z,99.90
2019-01-15T05:13:05.584Z,99.90
2019-01-15T05:15:50.519Z,99.90
2019-01-15T05:18:35.260Z,99.90
2019-01-15T05:21:19.680Z,99.90
2019-01-15T05:24:04.565Z,99.90
2019-01-15T05:26:49.434Z,99.90
2019-01-15T05:29:34.095Z,99.90
2019-01-15T05:32:19.123Z,99.90
2019-01-15T05:35:05.092Z,99.90
2019-01-15T05:37:49.897Z,99.90
2019-01-15T05:40:35.514Z,99.90
2019-01-15T05:43:20.579Z,99.80
2019-01-15T05:46:05.245Z,99.80
2019-01-15T05:48:50.399Z,99.70
2019-01-15T05:51:35.962Z,99.70
2019-01-15T05:54:21.094Z,99.70
2019-01-15T05:57:06.087Z,99.60
2019-01-15T05:59:50.727Z,99.50
2019-01-15T06:02:35.479Z,99.40
2019-01-15T06:05:20.020Z,99.50
2019-01-15T06:08:05.079Z,99.40
2019-01-15T06:10:49.754Z,99.30
2019-01-15T06:13:34.284Z,99.40
2019-01-15T06:16:18.975Z,99.40
2019-01-15T06:19:03.962Z,99.30
2019-01-15T06:21:48.962Z,99.20
2019-01-15T06:24:33.399Z,99.20
2019-01-15T06:27:17.962Z,99.20
2019-01-15T06:30:14.971Z,99.30
2019-01-15T06:32:59.798Z,99.20
2019-01-15T06:35:44.843Z,99.10
2019-01-15T06:38:29.715Z,99.20
2019-01-15T06:41:14.299Z,99.40
2019-01-15T06:43:58.942Z,99.50
2019-01-15T06:46:43.987Z,99.40
2019-01-15T06:49:28.689Z,99.70
2019-01-15T06:52:13.295Z,99.70
2019-01-15T06:54:57.927Z,99.80
2019-01-15T06:57:43.177Z,99.90
2019-01-15T07:00:29.621Z,99.80
2019-01-15T07:03:14.097Z,99.90
2019-01-15T07:05:58.722Z,99.90
2019-01-15T07:08:44.158Z,99.90
2019-01-15T07:11:29.153Z,99.90
2019-01-15T07:14:13.841Z,99.90
2019-01-15T07:16:58.790Z,99.90
2019-01-15T07:19:43.354Z,99.90
2019-01-15T07:22:27.868Z,99.90
2019-01-15T07:25:18.814Z,99.90
2019-01-15T07:28:03.514Z,99.90
2019-01-15T07:30:48.608Z,99.90
2019-01-15T07:33:33.268Z,99.90
2019-01-15T07:36:17.739Z,99.90
2019-01-15T07:39:05.769Z,99.90
2019-01-15T07:41:50.568Z,99.90
2019-01-15T07:44:35.283Z,99.90
2019-01-15T07:47:20.384Z,99.90
2019-01-15T07:50:15.142Z,99.90
2019-01-15T07:53:00.284Z,99.90
2019-01-15T07:55:44.839Z,99.90
2019-01-15T07:58:29.892Z,99.90
2019-01-15T08:01:16.560Z,99.90
2019-01-15T08:04:01.348Z,99.90
2019-01-15T08:06:46.267Z,99.90
2019-01-15T08:09:31.359Z,99.90
2019-01-15T08:12:15.937Z,99.90
2019-01-15T08:15:00.319Z,99.90
2019-01-15T08:17:45.062Z,99.90
2019-01-15T08:20:30.104Z,99.90
2019-01-15T08:23:14.578Z,99.90
2019-01-15T08:25:59.143Z,99.90
2019-01-15T08:28:43.914Z,99.90
2019-01-15T08:34:20.098Z,99.90
2019-01-15T08:37:04.987Z,99.90
2019-01-15T08:39:49.423Z,99.90
2019-01-15T08:42:34.810Z,99.90
2019-01-15T08:45:19.876Z,99.90
2019-01-15T08:48:06.741Z,99.90
2019-01-15T08:50:52.437Z,99.90
2019-01-15T08:53:37.337Z,99.90
2019-01-15T08:56:22.088Z,99.90
2019-01-15T08:59:06.991Z,99.90
2019-01-15T09:01:51.949Z,99.90
2019-01-15T09:04:38.348Z,99.90
2019-01-15T09:07:23.335Z,99.90
2019-01-15T09:10:12.373Z,99.90
2019-01-15T09:12:57.247Z,99.90
2019-01-15T09:15:42.033Z,99.90
2019-01-15T09:18:26.958Z,99.90
2019-01-15T09:21:11.938Z,99.90
2019-01-15T09:23:56.929Z,99.90
2019-01-15T09:26:41.309Z,99.90
2019-01-15T09:29:25.913Z,99.90
2019-01-15T09:32:10.324Z,99.90
2019-01-15T09:34:55.187Z,99.90
2019-01-15T09:37:40.691Z,99.90
2019-01-15T09:40:25.585Z,99.90
2019-01-15T09:43:10.276Z,99.90
2019-01-15T09:45:54.957Z,99.90
2019-01-15T09:48:39.767Z,99.90
2019-01-15T09:51:24.534Z,99.90
2019-01-15T09:54:09.153Z,99.90
2019-01-15T09:56:53.708Z,99.90
2019-01-15T09:59:38.695Z,99.90
2019-01-15T10:02:24.107Z,99.90
2019-01-15T10:05:08.819Z,99.90
2019-01-15T10:07:53.876Z,99.90
2019-01-15T10:10:38.813Z,99.90
2019-01-15T10:13:23.419Z,99.90
2019-01-15T10:16:08.110Z,99.90
2019-01-15T10:18:52.634Z,99.90
2019-01-15T10:21:37.449Z,99.80
2019-01-15T10:24:22.408Z,99.80
2019-01-15T10:27:07.823Z,99.90
2019-01-15T10:29:59.099Z,99.50
2019-01-15T10:32:44.387Z,99.50
2019-01-15T10:35:32.800Z,99.60
2019-01-15T10:38:17.669Z,99.60
2019-01-15T10:41:03.138Z,99.70
2019-01-15T10:43:47.867Z,99.60
2019-01-15T10:46:32.747Z,99.60
2019-01-15T10:49:17.582Z,99.50
2019-01-15T10:52:02.838Z,99.40
2019-01-15T10:54:47.696Z,99.50
2019-01-15T10:57:32.199Z,99.50
2019-01-15T11:00:17.040Z,99.60
2019-01-15T11:03:01.981Z,99.50
2019-01-15T11:05:46.974Z,99.30
2019-01-15T11:08:31.816Z,99.40
2019-01-15T11:11:16.377Z,99.40
2019-01-15T11:14:01.021Z,99.50
2019-01-15T11:16:46.152Z,99.40
2019-01-15T11:19:31.096Z,99.30
2019-01-15T11:22:15.528Z,99.40
2019-01-15T11:25:00.170Z,99.30
2019-01-15T11:27:44.768Z,98.80
2019-01-15T11:30:29.528Z,98.60
2019-01-15T11:33:14.437Z,98.40
2019-01-15T11:35:59.016Z,98.60
2019-01-15T11:38:43.653Z,98.50
2019-01-15T11:41:28.612Z,98.70
2019-01-15T11:44:13.108Z,98.70
2019-01-15T11:46:57.756Z,98.60
2019-01-15T11:49:42.772Z,98.40
2019-01-15T11:52:27.377Z,98.10
2019-01-15T11:55:13.415Z,98.10
2019-01-15T11:57:58.112Z,98.20
2019-01-15T12:00:45.057Z,98.10
2019-01-15T12:03:34.976Z,98.30
2019-01-15T12:06:37.944Z,98.30
2019-01-15T12:09:27.133Z,98.10
2019-01-15T12:12:22.309Z,97.90
2019-01-15T12:15:26.997Z,97.90
2019-01-15T12:18:13.926Z,97.60
2019-01-15T12:21:09.334Z,97.70
2019-01-15T12:24:10.673Z,97.60
2019-01-15T12:26:57.168Z,97.60
2019-01-15T12:29:52.998Z,97.20
2019-01-15T12:32:51.674Z,97.50
2019-01-15T12:35:40.791Z,97.60
2019-01-15T12:38:27.703Z,97.20
2019-01-15T12:41:14.441Z,97.30
2019-01-15T12:44:04.046Z,97.30
2019-01-15T12:46:56.259Z,97.10
2019-01-15T12:49:57.578Z,96.80
2019-01-15T12:52:50.270Z,96.90
2019-01-15T12:55:39.465Z,96.90
2019-01-15T12:58:25.893Z,96.90
2019-01-15T13:01:30.547Z,96.80
2019-01-15T13:04:23.342Z,97.00
2019-01-15T13:07:15.470Z,96.70
2019-01-15T13:10:07.624Z,96.90
2019-01-15T13:12:56.653Z,96.50
2019-01-15T13:15:58.555Z,96.40
2019-01-15T13:19:01.565Z,96.40
2019-01-15T13:21:53.792Z,96.60
2019-01-15T13:24:52.478Z,96.90
2019-01-15T13:27:55.810Z,96.90
2019-01-15T13:30:51.052Z,97.00
2019-01-15T13:33:47.103Z,97.10
2019-01-15T13:36:33.849Z,97.30
2019-01-15T13:39:20.244Z,98.00
2019-01-15T13:42:09.426Z,98.50
2019-01-15T13:44:56.411Z,99.30
2019-01-15T13:47:43.216Z,99.70
2019-01-15T13:50:29.599Z,99.90
2019-01-15T13:53:16.306Z,99.90
2019-01-15T13:56:12.718Z,99.90
2019-01-15T13:59:15.755Z,99.90
2019-01-15T14:02:07.942Z,99.90
2019-01-15T14:05:00.498Z,99.90
2019-01-15T14:08:05.014Z,99.90
2019-01-15T14:10:51.996Z,99.90
2019-01-15T14:13:38.337Z,99.90
2019-01-15T14:16:42.786Z,99.90
2019-01-15T14:19:29.211Z,99.90
2019-01-15T14:22:32.120Z,99.90
2019-01-15T14:25:18.441Z,99.90
2019-01-15T14:28:10.912Z,99.90
2019-01-15T14:31:13.658Z,99.90
2019-01-15T14:34:05.921Z,99.90
2019-01-15T14:36:52.829Z,99.90
2019-01-15T14:39:56.077Z,99.90
2019-01-15T14:42:51.274Z,99.90
2019-01-15T14:45:43.908Z,99.90
2019-01-15T14:48:36.611Z,99.90
2019-01-15T14:51:39.887Z,99.90
2019-01-15T14:54:38.215Z,99.90
2019-01-15T14:57:41.268Z,99.90
2019-01-15T15:00:27.823Z,99.90
2019-01-15T15:03:14.418Z,99.90
2019-01-15T15:06:06.498Z,99.90
2019-01-15T15:08:53.041Z,99.90
2019-01-15T15:11:57.190Z,99.90
2019-01-15T15:14:49.285Z,99.90
2019-01-15T15:17:50.952Z,99.90
2019-01-15T15:20:55.196Z,99.90
2019-01-15T15:23:47.727Z,99.90
2019-01-15T15:26:34.244Z,99.90
2019-01-15T15:29:21.258Z,99.90
2019-01-15T15:32:19.695Z,99.90
2019-01-15T15:35:26.471Z,99.90
2019-01-15T15:38:29.226Z,99.90
2019-01-15T15:41:21.419Z,99.90
2019-01-15T15:44:22.978Z,99.90
2019-01-15T15:47:12.583Z,99.90
2019-01-15T15:49:59.105Z,99.90
2019-01-15T15:52:45.979Z,99.90
2019-01-15T15:55:38.230Z,99.90
2019-01-15T15:58:27.961Z,99.90
2019-01-15T16:01:14.865Z,99.90
2019-01-15T16:04:01.950Z,99.90
2019-01-15T16:07:04.933Z,99.90
2019-01-15T16:10:07.780Z,99.90
2019-01-15T16:12:54.948Z,99.90
2019-01-15T16:15:53.692Z,99.90
2019-01-15T16:18:40.047Z,99.90
2019-01-15T16:21:44.574Z,99.90
2019-01-15T16:24:31.243Z,99.90
2019-01-15T16:27:18.314Z,99.90
2019-01-15T16:30:17.349Z,99.90
2019-01-15T16:33:04.309Z,99.90
2019-01-15T16:35:59.445Z,99.90
2019-01-15T16:39:02.163Z,99.90
2019-01-15T16:41:51.277Z,99.90
2019-01-15T16:44:55.489Z,99.90
2019-01-15T16:47:44.637Z,99.90
2019-01-15T16:50:43.574Z,99.90
2019-01-15T16:53:30.835Z,99.90
2019-01-15T16:56:23.293Z,99.90
2019-01-15T16:59:15.576Z,99.90
2019-01-15T17:02:05.173Z,99.90
2019-01-15T17:04:54.307Z,99.90
2019-01-15T17:07:52.793Z,99.90
2019-01-15T17:10:41.730Z,99.90
2019-01-15T17:13:28.257Z,99.90
2019-01-15T17:16:14.847Z,99.90
2019-01-15T17:19:10.122Z,99.90
2019-01-15T17:22:02.918Z,99.90
2019-01-15T17:24:49.896Z,99.90
2019-01-15T17:27:36.772Z,99.90
2019-01-15T17:30:29.385Z,99.90
2019-01-15T17:33:27.855Z,99.90
2019-01-15T17:36:14.952Z,99.90
2019-01-15T17:39:07.627Z,99.90
2019-01-15T17:42:00.278Z,99.90
2019-01-15T17:45:01.520Z,99.90
2019-01-15T17:47:50.798Z,99.90
2019-01-15T17:50:43.271Z,99.90
2019-01-15T17:53:36.132Z,99.90
2019-01-15T17:56:23.315Z,99.90
2019-01-15T17:59:13.041Z,99.90
2019-01-15T18:02:02.756Z,99.90
2019-01-15T18:05:05.677Z,99.90
2019-01-15T18:07:52.904Z,99.90
2019-01-15T18:10:42.215Z,99.80
2019-01-15T18:13:45.368Z,99.80
2019-01-15T18:16:35.152Z,99.80
2019-01-15T18:19:22.182Z,99.60
2019-01-15T18:22:24.887Z,99.60
2019-01-15T18:25:11.522Z,99.60
2019-01-15T18:28:10.476Z,99.60
2019-01-15T18:31:03.740Z,99.70
2019-01-15T18:33:50.557Z,99.70
2019-01-15T18:36:46.018Z,99.70
2019-01-15T18:39:33.503Z,99.50
2019-01-15T18:42:23.034Z,99.50
2019-01-15T18:45:27.891Z,99.50
2019-01-15T18:48:20.082Z,99.60
2019-01-15T18:51:09.381Z,99.50
2019-01-15T18:54:08.181Z,99.60
2019-01-15T18:56:54.814Z,99.60
2019-01-15T18:59:43.915Z,99.60
2019-01-15T19:02:33.576Z,99.70
2019-01-15T19:05:23.145Z,99.60
2019-01-15T19:08:10.120Z,99.50
2019-01-15T19:11:02.343Z,99.40
2019-01-15T19:13:57.752Z,99.40
2019-01-15T19:16:44.782Z,99.40
2019-01-15T19:19:40.497Z,99.40
2019-01-15T19:22:27.823Z,99.40
2019-01-15T19:25:17.662Z,99.40
2019-01-15T19:28:23.383Z,99.50
2019-01-15T19:31:26.041Z,99.50
2019-01-15T19:34:12.581Z,99.70
2019-01-15T19:37:16.006Z,99.90
2019-01-15T19:40:05.849Z,99.90
2019-01-15T19:43:08.972Z,99.90
2019-01-15T19:46:07.239Z,99.90
2019-01-15T19:48:59.862Z,99.90
2019-01-15T19:51:47.027Z,99.90
2019-01-15T19:54:34.091Z,99.90
2019-01-15T19:57:21.136Z,99.90
2019-01-15T20:00:20.012Z,99.90
2019-01-15T20:03:12.798Z,99.90
2019-01-15T20:05:59.893Z,99.90
2019-01-15T20:08:58.504Z,99.90
2019-01-15T20:11:48.451Z,99.90
2019-01-15T20:14:53.246Z,99.90
2019-01-15T20:17:45.876Z,99.90
2019-01-15T20:20:41.550Z,99.90
2019-01-15T20:23:33.937Z,99.90
2019-01-15T20:26:27.057Z,99.90
2019-01-15T20:29:14.154Z,99.90
2019-01-15T20:32:12.682Z,99.90
2019-01-15T20:34:59.897Z,99.90
2019-01-15T20:37:52.344Z,99.90
2019-01-15T20:40:39.313Z,99.90
2019-01-15T20:43:26.384Z,99.90
2019-01-15T20:46:18.662Z,99.90
2019-01-15T20:49:21.867Z,99.90
2019-01-15T20:52:08.460Z,99.90
2019-01-15T20:54:55.131Z,99.90
2019-01-15T20:57:47.605Z,99.90
2019-01-15T21:00:36.693Z,99.90
2019-01-15T21:03:39.502Z,99.90
2019-01-15T21:06:26.450Z,99.90
2019-01-15T21:09:13.115Z,99.90
2019-01-15T21:12:16.348Z,99.90
2019-01-15T21:15:12.654Z,99.90
2019-01-15T21:18:05.272Z,99.90
2019-01-15T21:21:03.990Z,99.90
2019-01-15T21:23:51.016Z,99.90
2019-01-15T21:26:40.586Z,99.90
2019-01-15T21:29:36.019Z,99.90
2019-01-15T21:32:37.201Z,99.90
2019-01-15T21:35:23.879Z,99.90
2019-01-15T21:38:11.007Z,99.90
2019-01-15T21:41:03.640Z,99.90
2019-01-15T21:43:55.815Z,99.90
2019-01-15T21:46:56.898Z,99.90
2019-01-15T21:50:00.287Z,99.90
2019-01-15T21:53:04.609Z,99.90
2019-01-15T21:55:57.252Z,99.90
2019-01-15T21:58:44.449Z,99.90
2019-01-15T22:01:49.095Z,99.90
2019-01-15T22:04:53.468Z,99.90
2019-01-15T22:07:43.215Z,99.90
2019-01-15T22:10:45.813Z,99.90
2019-01-15T22:13:35.019Z,99.90
2019-01-15T22:16:31.136Z,99.90
2019-01-15T22:19:18.087Z,99.90
2019-01-15T22:22:08.032Z,99.90
2019-01-15T22:25:11.151Z,99.90
2019-01-15T22:28:06.284Z,99.90
2019-01-15T22:30:53.049Z,99.90
2019-01-15T22:33:57.570Z,99.90
2019-01-15T22:37:01.043Z,99.90
2019-01-15T22:40:03.520Z,99.90
2019-01-15T22:43:08.017Z,99.90
2019-01-15T22:46:06.021Z,99.90
2019-01-15T22:48:52.705Z,99.90
2019-01-15T22:51:42.337Z,99.90
2019-01-15T22:54:28.909Z,99.90
2019-01-15T22:57:15.375Z,99.90
2019-01-15T23:00:18.357Z,99.90
2019-01-15T23:03:07.387Z,99.90
2019-01-15T23:05:53.849Z,99.90
2019-01-15T23:08:43.034Z,99.90
2019-01-15T23:11:35.904Z,99.90
2019-01-15T23:14:22.869Z,99.90
2019-01-15T23:17:27.395Z,99.90
2019-01-15T23:20:14.044Z,99.90
2019-01-15T23:23:03.521Z,99.90
2019-01-15T23:25:55.726Z,99.90
2019-01-15T23:28:48.005Z,99.90
2019-01-15T23:31:34.626Z,99.90
2019-01-15T23:34:21.711Z,99.90
2019-01-15T23:37:26.005Z,99.90
2019-01-15T23:40:12.935Z,99.90
2019-01-15T23:43:02.103Z,99.90
2019-01-15T23:45:48.955Z,99.90
2019-01-15T23:48:36.215Z,99.90
2019-01-15T23:51:22.745Z,99.90
2019-01-15T23:54:25.430Z,99.90
2019-01-15T23:57:20.685Z,99.90
